sensor_id;sensor_type;location;lat;lon;timestamp;pressure;altitude;pressure_sealevel;temperature;humidity
70758;BME280;59316;52.964;7.102;2023-03-22T00:05:07;100779.16;;;11.40;nan
70758;BME280;59316;52.964;7.102;2023-03-22T00:10:29;100780.56;;;11.45;nan
70758;BME280;59316;52.964;7.102;2023-03-22T00:15:50;100773.31;;;11.63;nan
70758;BME280;59316;52.964;7.102;2023-03-22T00:21:13;100772.50;;;11.76;nan
70758;BME280;59316;52.964;7.102;2023-03-22T00:26:35;100762.34;;;11.84;nan
70758;BME280;59316;52.964;7.102;2023-03-22T00:31:57;100759.50;;;11.87;nan
70758;BME280;59316;52.964;7.102;2023-03-22T00:37:18;100759.50;;;11.87;nan
70758;BME280;59316;52.964;7.102;2023-03-22T00:42:40;100767.59;;;11.84;nan
70758;BME280;59316;52.964;7.102;2023-03-22T00:48:02;100758.16;;;11.81;nan
70758;BME280;59316;52.964;7.102;2023-03-22T00:53:23;100751.00;;;11.71;nan
70758;BME280;59316;52.964;7.102;2023-03-22T00:58:45;100747.53;;;11.70;nan
70758;BME280;59316;52.964;7.102;2023-03-22T01:04:07;100753.72;;;11.69;nan
70758;BME280;59316;52.964;7.102;2023-03-22T01:09:29;100747.25;;;11.75;nan
70758;BME280;59316;52.964;7.102;2023-03-22T01:14:51;100728.22;;;11.58;nan
70758;BME280;59316;52.964;7.102;2023-03-22T01:20:12;100743.09;;;11.58;nan
70758;BME280;59316;52.964;7.102;2023-03-22T01:25:34;100734.16;;;11.47;nan
70758;BME280;59316;52.964;7.102;2023-03-22T01:30:59;100734.75;;;11.38;nan
70758;BME280;59316;52.964;7.102;2023-03-22T01:36:23;100729.84;;;11.33;nan
70758;BME280;59316;52.964;7.102;2023-03-22T01:41:45;100723.75;;;11.33;nan
70758;BME280;59316;52.964;7.102;2023-03-22T01:47:17;100711.09;;;11.40;nan
70758;BME280;59316;52.964;7.102;2023-03-22T01:52:41;100715.59;;;11.38;nan
70758;BME280;59316;52.964;7.102;2023-03-22T01:58:10;100705.03;;;11.39;nan
70758;BME280;59316;52.964;7.102;2023-03-22T02:03:46;100695.59;;;11.37;nan
70758;BME280;59316;52.964;7.102;2023-03-22T02:09:16;100688.44;;;11.26;nan
70758;BME280;59316;52.964;7.102;2023-03-22T02:14:46;100690.66;;;11.32;nan
70758;BME280;59316;52.964;7.102;2023-03-22T02:32:14;100675.94;;;11.16;nan
70758;BME280;59316;52.964;7.102;2023-03-22T02:38:17;100674.75;;;11.08;nan
70758;BME280;59316;52.964;7.102;2023-03-22T02:44:24;100667.16;;;11.17;nan
70758;BME280;59316;52.964;7.102;2023-03-22T02:50:04;100657.28;;;11.08;nan
70758;BME280;59316;52.964;7.102;2023-03-22T03:01:42;100648.59;;;11.08;nan
70758;BME280;59316;52.964;7.102;2023-03-22T03:07:11;100643.13;;;10.98;nan
70758;BME280;59316;52.964;7.102;2023-03-22T03:12:35;100638.69;;;10.85;nan
70758;BME280;59316;52.964;7.102;2023-03-22T03:23:50;100628.66;;;10.92;nan
70758;BME280;59316;52.964;7.102;2023-03-22T03:29:41;100622.88;;;10.87;nan
70758;BME280;59316;52.964;7.102;2023-03-22T03:35:22;100620.91;;;10.91;nan
70758;BME280;59316;52.964;7.102;2023-03-22T03:40:50;100621.94;;;10.88;nan
70758;BME280;59316;52.964;7.102;2023-03-22T03:46:17;100614.31;;;10.85;nan
70758;BME280;59316;52.964;7.102;2023-03-22T03:51:56;100602.34;;;10.81;nan
70758;BME280;59316;52.964;7.102;2023-03-22T03:57:17;100596.28;;;10.80;nan
70758;BME280;59316;52.964;7.102;2023-03-22T04:02:41;100588.63;;;10.77;nan
70758;BME280;59316;52.964;7.102;2023-03-22T04:08:18;100583.09;;;10.82;nan
70758;BME280;59316;52.964;7.102;2023-03-22T04:13:39;100580.44;;;10.69;nan
70758;BME280;59316;52.964;7.102;2023-03-22T04:19:06;100566.53;;;10.68;nan
70758;BME280;59316;52.964;7.102;2023-03-22T04:24:27;100560.34;;;10.69;nan
70758;BME280;59316;52.964;7.102;2023-03-22T04:29:49;100557.88;;;10.81;nan
70758;BME280;59316;52.964;7.102;2023-03-22T04:35:36;100554.97;;;10.85;nan
70758;BME280;59316;52.964;7.102;2023-03-22T04:40:58;100548.16;;;10.83;nan
70758;BME280;59316;52.964;7.102;2023-03-22T04:46:34;100547.34;;;10.95;nan
70758;BME280;59316;52.964;7.102;2023-03-22T04:51:58;100542.44;;;11.04;nan
70758;BME280;59316;52.964;7.102;2023-03-22T04:57:43;100551.25;;;11.15;nan
70758;BME280;59316;52.964;7.102;2023-03-22T05:03:04;100536.59;;;11.26;nan
70758;BME280;59316;52.964;7.102;2023-03-22T05:08:32;100543.31;;;11.30;nan
70758;BME280;59316;52.964;7.102;2023-03-22T05:13:56;100538.50;;;11.24;nan
70758;BME280;59316;52.964;7.102;2023-03-22T05:19:19;100539.53;;;11.21;nan
70758;BME280;59316;52.964;7.102;2023-03-22T05:24:42;100530.13;;;11.18;nan
70758;BME280;59316;52.964;7.102;2023-03-22T05:30:09;100532.84;;;11.17;nan
70758;BME280;59316;52.964;7.102;2023-03-22T05:35:40;100521.84;;;11.25;nan
70758;BME280;59316;52.964;7.102;2023-03-22T05:41:02;100527.63;;;11.30;nan
70758;BME280;59316;52.964;7.102;2023-03-22T05:46:26;100523.44;;;11.27;nan
70758;BME280;59316;52.964;7.102;2023-03-22T05:52:17;100510.00;;;11.45;nan
70758;BME280;59316;52.964;7.102;2023-03-22T05:58:01;100482.97;;;11.57;nan
70758;BME280;59316;52.964;7.102;2023-03-22T06:03:25;100497.84;;;11.70;nan
70758;BME280;59316;52.964;7.102;2023-03-22T06:09:07;100487.47;;;11.68;nan
70758;BME280;59316;52.964;7.102;2023-03-22T06:14:40;100484.75;;;11.70;nan
70758;BME280;59316;52.964;7.102;2023-03-22T06:20:12;100477.19;;;11.78;nan
70758;BME280;59316;52.964;7.102;2023-03-22T06:25:41;100487.03;;;11.74;nan
70758;BME280;59316;52.964;7.102;2023-03-22T06:31:07;100487.16;;;11.60;nan
70758;BME280;59316;52.964;7.102;2023-03-22T06:36:41;100484.94;;;11.66;nan
70758;BME280;59316;52.964;7.102;2023-03-22T06:42:06;100482.25;;;11.68;nan
70758;BME280;59316;52.964;7.102;2023-03-22T06:47:28;100464.41;;;11.73;nan
70758;BME280;59316;52.964;7.102;2023-03-22T06:53:15;100469.28;;;11.91;nan
70758;BME280;59316;52.964;7.102;2023-03-22T06:58:36;100461.75;;;12.23;nan
70758;BME280;59316;52.964;7.102;2023-03-22T07:03:58;100458.97;;;12.73;nan
70758;BME280;59316;52.964;7.102;2023-03-22T07:09:20;100463.69;;;12.57;nan
70758;BME280;59316;52.964;7.102;2023-03-22T07:14:43;100464.38;;;12.47;nan
70758;BME280;59316;52.964;7.102;2023-03-22T07:20:24;100456.81;;;12.67;nan
70758;BME280;59316;52.964;7.102;2023-03-22T07:25:46;100457.75;;;12.66;nan
70758;BME280;59316;52.964;7.102;2023-03-22T07:31:21;100446.22;;;12.80;nan
70758;BME280;59316;52.964;7.102;2023-03-22T07:36:51;100447.19;;;12.90;nan
70758;BME280;59316;52.964;7.102;2023-03-22T07:42:13;100443.50;;;12.93;nan
70758;BME280;59316;52.964;7.102;2023-03-22T07:47:35;100429.31;;;12.95;nan
70758;BME280;59316;52.964;7.102;2023-03-22T07:53:10;100442.31;;;12.97;nan
70758;BME280;59316;52.964;7.102;2023-03-22T07:58:32;100453.63;;;12.75;nan
70758;BME280;59316;52.964;7.102;2023-03-22T08:03:55;100457.84;;;13.00;nan
70758;BME280;59316;52.964;7.102;2023-03-22T08:09:39;100447.38;;;13.34;nan
70758;BME280;59316;52.964;7.102;2023-03-22T08:15:01;100458.13;;;13.31;nan
70758;BME280;59316;52.964;7.102;2023-03-22T08:20:24;100451.78;;;13.22;nan
70758;BME280;59316;52.964;7.102;2023-03-22T08:25:49;100447.00;;;12.93;nan
70758;BME280;59316;52.964;7.102;2023-03-22T08:31:15;100443.34;;;12.83;nan
70758;BME280;59316;52.964;7.102;2023-03-22T08:36:39;100443.16;;;12.86;nan
70758;BME280;59316;52.964;7.102;2023-03-22T08:42:01;100463.06;;;12.89;nan
70758;BME280;59316;52.964;7.102;2023-03-22T08:47:23;100461.97;;;12.80;nan
70758;BME280;59316;52.964;7.102;2023-03-22T08:52:49;100452.94;;;12.95;nan
70758;BME280;59316;52.964;7.102;2023-03-22T08:58:20;100450.50;;;13.28;nan
70758;BME280;59316;52.964;7.102;2023-03-22T09:04:04;100446.41;;;13.58;nan
70758;BME280;59316;52.964;7.102;2023-03-22T09:09:29;100447.97;;;13.60;nan
70758;BME280;59316;52.964;7.102;2023-03-22T09:14:50;100438.19;;;13.62;nan
70758;BME280;59316;52.964;7.102;2023-03-22T09:20:13;100424.06;;;13.75;nan
70758;BME280;59316;52.964;7.102;2023-03-22T09:25:42;100392.81;;;14.37;nan
70758;BME280;59316;52.964;7.102;2023-03-22T09:31:06;100405.56;;;14.41;nan
70758;BME280;59316;52.964;7.102;2023-03-22T09:36:30;100400.06;;;14.44;nan
70758;BME280;59316;52.964;7.102;2023-03-22T09:41:55;100398.94;;;14.58;nan
70758;BME280;59316;52.964;7.102;2023-03-22T09:47:30;100413.63;;;14.61;nan
70758;BME280;59316;52.964;7.102;2023-03-22T09:53:04;100416.94;;;14.63;nan
70758;BME280;59316;52.964;7.102;2023-03-22T09:58:49;100412.38;;;14.23;nan
70758;BME280;59316;52.964;7.102;2023-03-22T10:04:26;100411.38;;;14.56;nan
70758;BME280;59316;52.964;7.102;2023-03-22T10:10:15;100411.41;;;14.24;nan
70758;BME280;59316;52.964;7.102;2023-03-22T10:15:45;100409.88;;;14.21;nan
70758;BME280;59316;52.964;7.102;2023-03-22T10:21:10;100409.22;;;13.74;nan
70758;BME280;59316;52.964;7.102;2023-03-22T10:26:43;100410.84;;;13.31;nan
70758;BME280;59316;52.964;7.102;2023-03-22T10:32:35;100414.81;;;13.25;nan
70758;BME280;59316;52.964;7.102;2023-03-22T10:38:22;100406.06;;;13.13;nan
70758;BME280;59316;52.964;7.102;2023-03-22T10:43:52;100428.88;;;13.13;nan
70758;BME280;59316;52.964;7.102;2023-03-22T10:49:32;100420.25;;;12.99;nan
70758;BME280;59316;52.964;7.102;2023-03-22T10:54:57;100423.09;;;12.85;nan
70758;BME280;59316;52.964;7.102;2023-03-22T11:00:23;100435.72;;;12.80;nan
70758;BME280;59316;52.964;7.102;2023-03-22T11:05:57;100432.25;;;12.68;nan
70758;BME280;59316;52.964;7.102;2023-03-22T11:11:29;100431.75;;;12.63;nan
70758;BME280;59316;52.964;7.102;2023-03-22T11:22:36;100447.44;;;12.87;nan
70758;BME280;59316;52.964;7.102;2023-03-22T11:33:24;100443.06;;;12.99;nan
70758;BME280;59316;52.964;7.102;2023-03-22T11:38:45;100462.63;;;12.95;nan
70758;BME280;59316;52.964;7.102;2023-03-22T11:44:13;100460.16;;;12.69;nan
70758;BME280;59316;52.964;7.102;2023-03-22T11:49:48;100446.19;;;12.69;nan
70758;BME280;59316;52.964;7.102;2023-03-22T11:55:13;100435.94;;;12.65;nan
70758;BME280;59316;52.964;7.102;2023-03-22T12:00:36;100440.13;;;12.68;nan
70758;BME280;59316;52.964;7.102;2023-03-22T12:06:01;100430.47;;;12.69;nan
70758;BME280;59316;52.964;7.102;2023-03-22T12:17:03;100430.94;;;12.74;nan
70758;BME280;59316;52.964;7.102;2023-03-22T12:22:31;100422.38;;;12.72;nan
70758;BME280;59316;52.964;7.102;2023-03-22T12:28:02;100429.81;;;12.54;nan
70758;BME280;59316;52.964;7.102;2023-03-22T12:33:29;100418.50;;;12.53;nan
70758;BME280;59316;52.964;7.102;2023-03-22T12:38:57;100447.53;;;12.39;nan
70758;BME280;59316;52.964;7.102;2023-03-22T12:44:26;100448.16;;;12.42;nan
70758;BME280;59316;52.964;7.102;2023-03-22T12:50:10;100444.25;;;12.35;nan
70758;BME280;59316;52.964;7.102;2023-03-22T12:55:35;100449.63;;;12.33;nan
70758;BME280;59316;52.964;7.102;2023-03-22T13:17:42;100444.94;;;12.26;nan
70758;BME280;59316;52.964;7.102;2023-03-22T13:23:09;100433.84;;;12.22;nan
70758;BME280;59316;52.964;7.102;2023-03-22T13:28:32;100445.22;;;12.10;nan
70758;BME280;59316;52.964;7.102;2023-03-22T13:33:53;100450.44;;;12.10;nan
70758;BME280;59316;52.964;7.102;2023-03-22T13:39:16;100455.31;;;12.27;nan
70758;BME280;59316;52.964;7.102;2023-03-22T13:44:40;100450.34;;;12.11;nan
70758;BME280;59316;52.964;7.102;2023-03-22T14:01:32;100450.00;;;12.16;nan
70758;BME280;59316;52.964;7.102;2023-03-22T14:18:43;100449.56;;;11.98;nan
70758;BME280;59316;52.964;7.102;2023-03-22T14:24:14;100444.09;;;12.01;nan
70758;BME280;59316;52.964;7.102;2023-03-22T14:29:44;100451.34;;;11.97;nan
70758;BME280;59316;52.964;7.102;2023-03-22T14:35:08;100445.38;;;11.95;nan
70758;BME280;59316;52.964;7.102;2023-03-22T14:40:37;100441.25;;;11.80;nan
70758;BME280;59316;52.964;7.102;2023-03-22T14:46:19;100453.56;;;11.91;nan
70758;BME280;59316;52.964;7.102;2023-03-22T14:51:41;100436.56;;;11.96;nan
70758;BME280;59316;52.964;7.102;2023-03-22T14:57:03;100432.59;;;11.91;nan
70758;BME280;59316;52.964;7.102;2023-03-22T15:13:39;100412.00;;;11.86;nan
70758;BME280;59316;52.964;7.102;2023-03-22T15:19:00;100406.63;;;11.88;nan
70758;BME280;59316;52.964;7.102;2023-03-22T15:24:24;100408.25;;;12.02;nan
70758;BME280;59316;52.964;7.102;2023-03-22T15:29:49;100399.88;;;11.96;nan
70758;BME280;59316;52.964;7.102;2023-03-22T15:35:14;100393.97;;;12.06;nan
70758;BME280;59316;52.964;7.102;2023-03-22T15:40:39;100387.28;;;12.02;nan
70758;BME280;59316;52.964;7.102;2023-03-22T15:46:18;100387.72;;;12.20;nan
70758;BME280;59316;52.964;7.102;2023-03-22T15:51:39;100392.97;;;12.20;nan
70758;BME280;59316;52.964;7.102;2023-03-22T15:57:19;100402.25;;;12.24;nan
70758;BME280;59316;52.964;7.102;2023-03-22T16:08:16;100389.66;;;12.05;nan
70758;BME280;59316;52.964;7.102;2023-03-22T16:13:36;100389.16;;;11.99;nan
70758;BME280;59316;52.964;7.102;2023-03-22T16:18:56;100394.09;;;12.04;nan
70758;BME280;59316;52.964;7.102;2023-03-22T16:24:16;100398.47;;;12.04;nan
70758;BME280;59316;52.964;7.102;2023-03-22T16:29:37;100408.88;;;12.05;nan
70758;BME280;59316;52.964;7.102;2023-03-22T16:34:57;100397.53;;;12.05;nan
70758;BME280;59316;52.964;7.102;2023-03-22T16:40:19;100398.59;;;12.02;nan
70758;BME280;59316;52.964;7.102;2023-03-22T16:45:41;100391.34;;;12.06;nan
70758;BME280;59316;52.964;7.102;2023-03-22T16:51:01;100386.72;;;12.09;nan
70758;BME280;59316;52.964;7.102;2023-03-22T16:56:23;100363.47;;;12.05;nan
70758;BME280;59316;52.964;7.102;2023-03-22T17:01:43;100366.75;;;11.95;nan
70758;BME280;59316;52.964;7.102;2023-03-22T17:07:10;100352.84;;;11.95;nan
70758;BME280;59316;52.964;7.102;2023-03-22T17:12:33;100344.84;;;11.96;nan
70758;BME280;59316;52.964;7.102;2023-03-22T17:17:54;100353.16;;;11.90;nan
70758;BME280;59316;52.964;7.102;2023-03-22T17:23:15;100364.03;;;11.97;nan
70758;BME280;59316;52.964;7.102;2023-03-22T17:28:35;100365.81;;;11.96;nan
70758;BME280;59316;52.964;7.102;2023-03-22T17:33:55;100355.34;;;11.96;nan
70758;BME280;59316;52.964;7.102;2023-03-22T17:39:15;100356.59;;;11.91;nan
70758;BME280;59316;52.964;7.102;2023-03-22T17:44:35;100350.44;;;11.92;nan
70758;BME280;59316;52.964;7.102;2023-03-22T17:49:55;100349.81;;;11.88;nan
70758;BME280;59316;52.964;7.102;2023-03-22T17:55:21;100338.50;;;11.88;nan
70758;BME280;59316;52.964;7.102;2023-03-22T18:00:43;100346.56;;;11.84;nan
70758;BME280;59316;52.964;7.102;2023-03-22T18:06:03;100352.88;;;11.82;nan
70758;BME280;59316;52.964;7.102;2023-03-22T18:11:24;100351.31;;;11.79;nan
70758;BME280;59316;52.964;7.102;2023-03-22T18:16:44;100367.75;;;11.81;nan
70758;BME280;59316;52.964;7.102;2023-03-22T18:22:04;100379.31;;;11.79;nan
70758;BME280;59316;52.964;7.102;2023-03-22T18:27:24;100382.97;;;11.76;nan
70758;BME280;59316;52.964;7.102;2023-03-22T18:32:46;100382.75;;;11.79;nan
70758;BME280;59316;52.964;7.102;2023-03-22T18:38:07;100374.81;;;11.81;nan
70758;BME280;59316;52.964;7.102;2023-03-22T18:43:27;100374.13;;;11.90;nan
70758;BME280;59316;52.964;7.102;2023-03-22T18:48:47;100371.63;;;11.89;nan
70758;BME280;59316;52.964;7.102;2023-03-22T18:54:07;100341.44;;;11.83;nan
70758;BME280;59316;52.964;7.102;2023-03-22T18:59:28;100349.66;;;11.78;nan
70758;BME280;59316;52.964;7.102;2023-03-22T19:04:48;100354.78;;;11.80;nan
70758;BME280;59316;52.964;7.102;2023-03-22T19:10:10;100341.25;;;11.86;nan
70758;BME280;59316;52.964;7.102;2023-03-22T19:15:31;100335.38;;;11.82;nan
70758;BME280;59316;52.964;7.102;2023-03-22T19:20:51;100315.50;;;11.80;nan
70758;BME280;59316;52.964;7.102;2023-03-22T19:26:11;100320.00;;;11.78;nan
70758;BME280;59316;52.964;7.102;2023-03-22T19:31:32;100310.13;;;11.81;nan
70758;BME280;59316;52.964;7.102;2023-03-22T19:36:52;100301.16;;;11.73;nan
70758;BME280;59316;52.964;7.102;2023-03-22T19:42:13;100330.47;;;11.78;nan
70758;BME280;59316;52.964;7.102;2023-03-22T19:47:33;100310.88;;;11.83;nan
70758;BME280;59316;52.964;7.102;2023-03-22T19:52:53;100315.88;;;11.87;nan
70758;BME280;59316;52.964;7.102;2023-03-22T19:58:14;100305.38;;;11.87;nan
70758;BME280;59316;52.964;7.102;2023-03-22T20:03:35;100313.13;;;11.88;nan
70758;BME280;59316;52.964;7.102;2023-03-22T20:08:56;100315.53;;;11.91;nan
70758;BME280;59316;52.964;7.102;2023-03-22T20:14:16;100316.84;;;11.97;nan
70758;BME280;59316;52.964;7.102;2023-03-22T20:19:36;100292.56;;;11.95;nan
70758;BME280;59316;52.964;7.102;2023-03-22T20:24:56;100293.03;;;11.89;nan
70758;BME280;59316;52.964;7.102;2023-03-22T20:30:17;100298.03;;;11.92;nan
70758;BME280;59316;52.964;7.102;2023-03-22T20:35:38;100272.06;;;11.89;nan
70758;BME280;59316;52.964;7.102;2023-03-22T20:40:59;100270.75;;;11.94;nan
70758;BME280;59316;52.964;7.102;2023-03-22T20:46:19;100263.13;;;11.91;nan
70758;BME280;59316;52.964;7.102;2023-03-22T20:51:39;100275.16;;;11.94;nan
70758;BME280;59316;52.964;7.102;2023-03-22T20:56:59;100265.63;;;11.93;nan
70758;BME280;59316;52.964;7.102;2023-03-22T21:02:19;100264.56;;;11.95;nan
70758;BME280;59316;52.964;7.102;2023-03-22T21:07:41;100267.94;;;11.97;nan
70758;BME280;59316;52.964;7.102;2023-03-22T21:13:02;100253.84;;;11.98;nan
70758;BME280;59316;52.964;7.102;2023-03-22T21:18:23;100255.41;;;12.01;nan
70758;BME280;59316;52.964;7.102;2023-03-22T21:23:43;100246.22;;;11.95;nan
70758;BME280;59316;52.964;7.102;2023-03-22T21:29:03;100253.97;;;11.97;nan
70758;BME280;59316;52.964;7.102;2023-03-22T21:34:24;100255.53;;;11.99;nan
70758;BME280;59316;52.964;7.102;2023-03-22T21:39:44;100231.00;;;12.00;nan
70758;BME280;59316;52.964;7.102;2023-03-22T21:45:04;100218.13;;;11.97;nan
